sensor_id;sensor_type;location;lat;lon;timestamp;temperature;humidity
11617;DHT22;5864;52.998;9.068;2022-10-29T00:00:52;15.90;99.90
11617;DHT22;5864;52.998;9.068;2022-10-29T00:03:20;15.90;99.90
11617;DHT22;5864;52.998;9.068;2022-10-29T00:05:58;15.90;99.90
11617;DHT22;5864;52.998;9.068;2022-10-29T00:08:27;15.90;99.90
11617;DHT22;5864;52.998;9.068;2022-10-29T00:10:55;15.80;99.90
11617;DHT22;5864;52.998;9.068;2022-10-29T00:13:31;15.90;99.90
11617;DHT22;5864;52.998;9.068;2022-10-29T00:15:58;15.80;99.90
11617;DHT22;5864;52.998;9.068;2022-10-29T00:18:26;15.90;99.90
11617;DHT22;5864;52.998;9.068;2022-10-29T00:20:59;15.90;99.90
11617;DHT22;5864;52.998;9.068;2022-10-29T00:23:26;15.90;99.90
11617;DHT22;5864;52.998;9.068;2022-10-29T00:25:55;15.90;99.90
11617;DHT22;5864;52.998;9.068;2022-10-29T00:28:23;15.90;99.90
11617;DHT22;5864;52.998;9.068;2022-10-29T00:30:51;15.90;99.90
11617;DHT22;5864;52.998;9.068;2022-10-29T00:33:19;16.00;99.90
11617;DHT22;5864;52.998;9.068;2022-10-29T00:35:57;15.90;99.90
11617;DHT22;5864;52.998;9.068;2022-10-29T00:38:25;15.90;99.90
11617;DHT22;5864;52.998;9.068;2022-10-29T00:40:52;15.90;99.90
11617;DHT22;5864;52.998;9.068;2022-10-29T00:43:22;15.90;99.90
11617;DHT22;5864;52.998;9.068;2022-10-29T00:45:52;15.80;99.90
11617;DHT22;5864;52.998;9.068;2022-10-29T00:48:21;15.80;99.90
11617;DHT22;5864;52.998;9.068;2022-10-29T00:50:50;15.80;99.90
11617;DHT22;5864;52.998;9.068;2022-10-29T00:53:20;15.80;99.90
11617;DHT22;5864;52.998;9.068;2022-10-29T00:55:49;15.80;99.90
11617;DHT22;5864;52.998;9.068;2022-10-29T00:58:16;15.80;99.90
11617;DHT22;5864;52.998;9.068;2022-10-29T01:00:45;15.80;99.90
11617;DHT22;5864;52.998;9.068;2022-10-29T01:03:13;15.80;99.90
11617;DHT22;5864;52.998;9.068;2022-10-29T01:05:41;15.80;99.90
11617;DHT22;5864;52.998;9.068;2022-10-29T01:08:10;15.70;99.90
11617;DHT22;5864;52.998;9.068;2022-10-29T01:10:48;15.20;99.90
11617;DHT22;5864;52.998;9.068;2022-10-29T01:13:27;15.70;99.90
11617;DHT22;5864;52.998;9.068;2022-10-29T01:16:06;15.70;99.90
11617;DHT22;5864;52.998;9.068;2022-10-29T01:18:43;15.70;99.90
11617;DHT22;5864;52.998;9.068;2022-10-29T01:21:42;15.70;99.90
11617;DHT22;5864;52.998;9.068;2022-10-29T01:30:21;15.60;99.90
11617;DHT22;5864;52.998;9.068;2022-10-29T01:33:05;15.50;99.90
11617;DHT22;5864;52.998;9.068;2022-10-29T01:35:42;15.50;99.90
11617;DHT22;5864;52.998;9.068;2022-10-29T01:38:28;15.60;99.90
11617;DHT22;5864;52.998;9.068;2022-10-29T01:41:04;15.50;99.90
11617;DHT22;5864;52.998;9.068;2022-10-29T01:43:36;15.50;99.90
11617;DHT22;5864;52.998;9.068;2022-10-29T01:46:08;15.50;99.90
11617;DHT22;5864;52.998;9.068;2022-10-29T01:48:42;15.50;99.90
11617;DHT22;5864;52.998;9.068;2022-10-29T01:51:16;15.50;99.90
11617;DHT22;5864;52.998;9.068;2022-10-29T01:53:45;15.50;99.90
11617;DHT22;5864;52.998;9.068;2022-10-29T01:56:12;15.50;99.90
11617;DHT22;5864;52.998;9.068;2022-10-29T01:58:42;15.50;99.90
11617;DHT22;5864;52.998;9.068;2022-10-29T02:01:26;15.60;99.90
11617;DHT22;5864;52.998;9.068;2022-10-29T02:04:09;15.60;99.90
11617;DHT22;5864;52.998;9.068;2022-10-29T02:06:44;15.60;99.90
11617;DHT22;5864;52.998;9.068;2022-10-29T02:09:15;15.60;99.90
11617;DHT22;5864;52.998;9.068;2022-10-29T02:11:50;15.60;99.90
11617;DHT22;5864;52.998;9.068;2022-10-29T02:14:23;15.60;99.90
11617;DHT22;5864;52.998;9.068;2022-10-29T02:16:52;15.60;99.90
11617;DHT22;5864;52.998;9.068;2022-10-29T02:19:22;15.50;99.90
11617;DHT22;5864;52.998;9.068;2022-10-29T02:21:49;15.50;99.90
11617;DHT22;5864;52.998;9.068;2022-10-29T02:24:17;15.50;99.90
11617;DHT22;5864;52.998;9.068;2022-10-29T02:26:44;15.50;99.90
11617;DHT22;5864;52.998;9.068;2022-10-29T02:29:11;15.50;99.90
11617;DHT22;5864;52.998;9.068;2022-10-29T02:31:38;15.40;99.90
11617;DHT22;5864;52.998;9.068;2022-10-29T02:34:06;15.40;99.90
11617;DHT22;5864;52.998;9.068;2022-10-29T02:36:34;15.30;99.90
11617;DHT22;5864;52.998;9.068;2022-10-29T02:39:02;15.30;99.90
11617;DHT22;5864;52.998;9.068;2022-10-29T02:41:30;15.20;99.90
11617;DHT22;5864;52.998;9.068;2022-10-29T02:43:57;15.20;99.90
11617;DHT22;5864;52.998;9.068;2022-10-29T02:46:24;15.20;99.90
11617;DHT22;5864;52.998;9.068;2022-10-29T02:48:51;15.10;99.90
11617;DHT22;5864;52.998;9.068;2022-10-29T02:51:19;15.10;99.90
11617;DHT22;5864;52.998;9.068;2022-10-29T02:53:47;15.00;99.90
11617;DHT22;5864;52.998;9.068;2022-10-29T02:56:14;15.00;99.90
11617;DHT22;5864;52.998;9.068;2022-10-29T02:58:42;15.00;99.90
11617;DHT22;5864;52.998;9.068;2022-10-29T03:01:09;14.90;99.90
11617;DHT22;5864;52.998;9.068;2022-10-29T03:03:36;14.80;99.90
11617;DHT22;5864;52.998;9.068;2022-10-29T03:06:04;14.80;99.90
11617;DHT22;5864;52.998;9.068;2022-10-29T03:08:37;14.80;99.90
11617;DHT22;5864;52.998;9.068;2022-10-29T03:11:06;14.70;99.90
11617;DHT22;5864;52.998;9.068;2022-10-29T03:13:33;14.60;99.90
11617;DHT22;5864;52.998;9.068;2022-10-29T03:16:01;14.60;99.90
11617;DHT22;5864;52.998;9.068;2022-10-29T03:18:28;14.60;99.90
11617;DHT22;5864;52.998;9.068;2022-10-29T03:20:55;14.50;99.90
11617;DHT22;5864;52.998;9.068;2022-10-29T03:23:22;14.50;99.90
11617;DHT22;5864;52.998;9.068;2022-10-29T03:25:50;14.60;99.90
11617;DHT22;5864;52.998;9.068;2022-10-29T03:28:20;14.50;99.90
11617;DHT22;5864;52.998;9.068;2022-10-29T03:30:48;14.50;99.90
11617;DHT22;5864;52.998;9.068;2022-10-29T03:33:15;14.50;99.90
11617;DHT22;5864;52.998;9.068;2022-10-29T03:35:42;14.50;99.90
11617;DHT22;5864;52.998;9.068;2022-10-29T03:38:10;14.50;99.90
11617;DHT22;5864;52.998;9.068;2022-10-29T03:40:37;14.40;99.90
11617;DHT22;5864;52.998;9.068;2022-10-29T03:43:04;14.30;99.90
11617;DHT22;5864;52.998;9.068;2022-10-29T03:45:33;14.30;99.90
11617;DHT22;5864;52.998;9.068;2022-10-29T03:48:02;14.20;99.90
11617;DHT22;5864;52.998;9.068;2022-10-29T03:50:30;14.20;99.90
11617;DHT22;5864;52.998;9.068;2022-10-29T03:52:57;14.20;99.90
11617;DHT22;5864;52.998;9.068;2022-10-29T03:55:25;14.20;99.90
11617;DHT22;5864;52.998;9.068;2022-10-29T03:57:54;14.20;99.90
11617;DHT22;5864;52.998;9.068;2022-10-29T04:00:22;14.20;99.90
11617;DHT22;5864;52.998;9.068;2022-10-29T04:02:50;14.10;99.90
11617;DHT22;5864;52.998;9.068;2022-10-29T04:05:18;14.10;99.90
11617;DHT22;5864;52.998;9.068;2022-10-29T04:07:45;14.00;99.90
11617;DHT22;5864;52.998;9.068;2022-10-29T04:10:12;14.00;99.90
11617;DHT22;5864;52.998;9.068;2022-10-29T04:12:44;14.00;99.90
11617;DHT22;5864;52.998;9.068;2022-10-29T04:15:11;13.90;99.90
11617;DHT22;5864;52.998;9.068;2022-10-29T04:17:38;13.90;99.90
11617;DHT22;5864;52.998;9.068;2022-10-29T04:20:08;13.90;99.90
11617;DHT22;5864;52.998;9.068;2022-10-29T04:22:36;13.90;99.90
11617;DHT22;5864;52.998;9.068;2022-10-29T04:25:04;13.90;99.90
11617;DHT22;5864;52.998;9.068;2022-10-29T04:27:31;11.50;99.90
11617;DHT22;5864;52.998;9.068;2022-10-29T04:30:00;13.90;99.90
11617;DHT22;5864;52.998;9.068;2022-10-29T04:32:27;13.90;99.90
11617;DHT22;5864;52.998;9.068;2022-10-29T04:34:54;13.80;99.90
11617;DHT22;5864;52.998;9.068;2022-10-29T04:37:23;13.80;99.90
11617;DHT22;5864;52.998;9.068;2022-10-29T04:39:50;13.80;99.90
11617;DHT22;5864;52.998;9.068;2022-10-29T04:42:18;13.80;99.90
11617;DHT22;5864;52.998;9.068;2022-10-29T04:44:45;13.80;99.90
11617;DHT22;5864;52.998;9.068;2022-10-29T04:47:13;13.80;99.90
11617;DHT22;5864;52.998;9.068;2022-10-29T04:49:40;13.80;99.90
11617;DHT22;5864;52.998;9.068;2022-10-29T04:52:08;13.70;99.90
11617;DHT22;5864;52.998;9.068;2022-10-29T04:54:36;13.80;99.90
11617;DHT22;5864;52.998;9.068;2022-10-29T04:57:04;13.70;99.90
11617;DHT22;5864;52.998;9.068;2022-10-29T04:59:31;13.70;99.90
11617;DHT22;5864;52.998;9.068;2022-10-29T05:01:58;13.70;99.90
11617;DHT22;5864;52.998;9.068;2022-10-29T05:04:26;13.70;99.90
11617;DHT22;5864;52.998;9.068;2022-10-29T05:06:54;13.70;99.90
11617;DHT22;5864;52.998;9.068;2022-10-29T05:09:21;13.60;99.90
11617;DHT22;5864;52.998;9.068;2022-10-29T05:11:50;13.60;99.90
11617;DHT22;5864;52.998;9.068;2022-10-29T05:14:17;13.60;99.90
11617;DHT22;5864;52.998;9.068;2022-10-29T05:16:45;13.60;99.90
11617;DHT22;5864;52.998;9.068;2022-10-29T05:19:12;13.60;99.90
11617;DHT22;5864;52.998;9.068;2022-10-29T05:21:39;13.60;99.90
11617;DHT22;5864;52.998;9.068;2022-10-29T05:24:07;13.60;99.90
11617;DHT22;5864;52.998;9.068;2022-10-29T05:26:34;13.60;99.90
11617;DHT22;5864;52.998;9.068;2022-10-29T05:29:03;13.50;99.90
11617;DHT22;5864;52.998;9.068;2022-10-29T05:31:30;13.50;99.90
11617;DHT22;5864;52.998;9.068;2022-10-29T05:33:58;13.50;99.90
11617;DHT22;5864;52.998;9.068;2022-10-29T05:36:25;13.40;99.90
11617;DHT22;5864;52.998;9.068;2022-10-29T05:38:52;13.40;99.90
11617;DHT22;5864;52.998;9.068;2022-10-29T05:41:20;13.40;99.90
11617;DHT22;5864;52.998;9.068;2022-10-29T05:43:48;13.40;99.90
11617;DHT22;5864;52.998;9.068;2022-10-29T05:46:16;13.50;99.90
11617;DHT22;5864;52.998;9.068;2022-10-29T05:48:44;13.30;99.90
11617;DHT22;5864;52.998;9.068;2022-10-29T05:51:11;13.30;99.90
11617;DHT22;5864;52.998;9.068;2022-10-29T05:53:38;13.30;99.90
11617;DHT22;5864;52.998;9.068;2022-10-29T05:56:06;13.30;99.90
11617;DHT22;5864;52.998;9.068;2022-10-29T05:58:34;13.40;99.90
11617;DHT22;5864;52.998;9.068;2022-10-29T06:01:05;13.40;99.90
11617;DHT22;5864;52.998;9.068;2022-10-29T06:03:34;13.30;99.90
11617;DHT22;5864;52.998;9.068;2022-10-29T06:06:01;13.30;99.90
11617;DHT22;5864;52.998;9.068;2022-10-29T06:08:29;13.30;99.90
11617;DHT22;5864;52.998;9.068;2022-10-29T06:10:59;13.20;99.90
11617;DHT22;5864;52.998;9.068;2022-10-29T06:13:27;13.20;99.90
11617;DHT22;5864;52.998;9.068;2022-10-29T06:15:56;13.20;99.90
11617;DHT22;5864;52.998;9.068;2022-10-29T06:18:24;13.10;99.90
11617;DHT22;5864;52.998;9.068;2022-10-29T06:20:53;13.10;99.90
11617;DHT22;5864;52.998;9.068;2022-10-29T06:23:20;13.10;99.90
11617;DHT22;5864;52.998;9.068;2022-10-29T06:25:47;13.10;99.90
11617;DHT22;5864;52.998;9.068;2022-10-29T06:28:15;13.10;99.90
11617;DHT22;5864;52.998;9.068;2022-10-29T06:30:46;13.10;99.90
11617;DHT22;5864;52.998;9.068;2022-10-29T06:33:14;13.10;99.90
11617;DHT22;5864;52.998;9.068;2022-10-29T06:35:41;13.10;99.90
11617;DHT22;5864;52.998;9.068;2022-10-29T06:38:10;13.10;99.90
11617;DHT22;5864;52.998;9.068;2022-10-29T06:40:38;13.00;99.90
11617;DHT22;5864;52.998;9.068;2022-10-29T06:43:08;13.00;99.90
11617;DHT22;5864;52.998;9.068;2022-10-29T06:45:36;13.00;99.90
11617;DHT22;5864;52.998;9.068;2022-10-29T06:48:04;13.10;99.90
11617;DHT22;5864;52.998;9.068;2022-10-29T06:50:31;13.00;99.90
11617;DHT22;5864;52.998;9.068;2022-10-29T06:53:00;13.10;99.90
11617;DHT22;5864;52.998;9.068;2022-10-29T06:55:29;13.10;99.90
11617;DHT22;5864;52.998;9.068;2022-10-29T06:57:58;13.10;99.90
11617;DHT22;5864;52.998;9.068;2022-10-29T07:00:26;13.10;99.90
11617;DHT22;5864;52.998;9.068;2022-10-29T07:02:54;13.10;99.90
11617;DHT22;5864;52.998;9.068;2022-10-29T07:05:22;13.10;99.90
11617;DHT22;5864;52.998;9.068;2022-10-29T07:07:53;13.00;99.90
11617;DHT22;5864;52.998;9.068;2022-10-29T07:10:21;13.10;99.90
11617;DHT22;5864;52.998;9.068;2022-10-29T07:12:50;13.10;99.90
11617;DHT22;5864;52.998;9.068;2022-10-29T07:15:17;13.20;99.90
11617;DHT22;5864;52.998;9.068;2022-10-29T07:17:53;13.20;99.90
11617;DHT22;5864;52.998;9.068;2022-10-29T07:20:21;13.20;99.90
11617;DHT22;5864;52.998;9.068;2022-10-29T07:22:48;13.30;99.90
11617;DHT22;5864;52.998;9.068;2022-10-29T07:25:16;13.30;99.90
11617;DHT22;5864;52.998;9.068;2022-10-29T07:27:43;13.30;99.90
11617;DHT22;5864;52.998;9.068;2022-10-29T07:30:12;13.30;99.90
11617;DHT22;5864;52.998;9.068;2022-10-29T07:32:39;13.40;99.90
11617;DHT22;5864;52.998;9.068;2022-10-29T07:35:07;13.40;99.90
11617;DHT22;5864;52.998;9.068;2022-10-29T07:37:35;13.50;99.90
11617;DHT22;5864;52.998;9.068;2022-10-29T07:40:02;13.80;99.90
11617;DHT22;5864;52.998;9.068;2022-10-29T07:42:30;14.50;99.90
11617;DHT22;5864;52.998;9.068;2022-10-29T07:44:57;15.50;99.90
11617;DHT22;5864;52.998;9.068;2022-10-29T07:47:26;16.50;99.90
11617;DHT22;5864;52.998;9.068;2022-10-29T07:49:53;17.10;99.90
11617;DHT22;5864;52.998;9.068;2022-10-29T07:52:20;17.50;99.90
11617;DHT22;5864;52.998;9.068;2022-10-29T07:54:48;18.10;99.90
11617;DHT22;5864;52.998;9.068;2022-10-29T07:57:15;18.30;99.90
11617;DHT22;5864;52.998;9.068;2022-10-29T07:59:42;18.10;99.90
11617;DHT22;5864;52.998;9.068;2022-10-29T08:02:11;18.50;99.90
11617;DHT22;5864;52.998;9.068;2022-10-29T08:04:40;19.00;99.90
11617;DHT22;5864;52.998;9.068;2022-10-29T08:07:07;19.80;99.90
11617;DHT22;5864;52.998;9.068;2022-10-29T08:09:34;20.50;99.90
11617;DHT22;5864;52.998;9.068;2022-10-29T08:12:02;20.90;99.90
11617;DHT22;5864;52.998;9.068;2022-10-29T08:14:31;21.50;99.90
11617;DHT22;5864;52.998;9.068;2022-10-29T08:16:59;21.40;99.90
11617;DHT22;5864;52.998;9.068;2022-10-29T08:19:26;21.10;99.90
11617;DHT22;5864;52.998;9.068;2022-10-29T08:21:56;20.70;99.90
11617;DHT22;5864;52.998;9.068;2022-10-29T08:24:23;21.20;99.90
11617;DHT22;5864;52.998;9.068;2022-10-29T08:26:50;21.70;99.90
11617;DHT22;5864;52.998;9.068;2022-10-29T08:29:17;21.80;99.90
11617;DHT22;5864;52.998;9.068;2022-10-29T08:31:45;21.90;99.90
11617;DHT22;5864;52.998;9.068;2022-10-29T08:34:12;22.00;99.90
11617;DHT22;5864;52.998;9.068;2022-10-29T08:36:40;22.30;99.90
11617;DHT22;5864;52.998;9.068;2022-10-29T08:39:08;22.40;99.90
11617;DHT22;5864;52.998;9.068;2022-10-29T08:41:45;22.30;99.90
11617;DHT22;5864;52.998;9.068;2022-10-29T08:44:22;21.80;99.90
11617;DHT22;5864;52.998;9.068;2022-10-29T08:46:56;21.00;99.90
11617;DHT22;5864;52.998;9.068;2022-10-29T08:49:31;20.10;99.90
11617;DHT22;5864;52.998;9.068;2022-10-29T08:52:03;19.20;99.90
11617;DHT22;5864;52.998;9.068;2022-10-29T08:54:35;18.60;99.90
11617;DHT22;5864;52.998;9.068;2022-10-29T08:57:07;18.40;99.90
11617;DHT22;5864;52.998;9.068;2022-10-29T08:59:42;18.10;99.90
11617;DHT22;5864;52.998;9.068;2022-10-29T09:02:14;17.80;99.90
11617;DHT22;5864;52.998;9.068;2022-10-29T09:04:43;17.60;99.90
11617;DHT22;5864;52.998;9.068;2022-10-29T09:07:21;17.30;99.90
11617;DHT22;5864;52.998;9.068;2022-10-29T09:10:01;17.10;99.90
11617;DHT22;5864;52.998;9.068;2022-10-29T09:12:53;16.90;99.90
11617;DHT22;5864;52.998;9.068;2022-10-29T09:15:48;16.70;99.90
11617;DHT22;5864;52.998;9.068;2022-10-29T09:18:26;16.80;99.90
11617;DHT22;5864;52.998;9.068;2022-10-29T09:21:04;16.80;99.90
11617;DHT22;5864;52.998;9.068;2022-10-29T09:23:51;16.90;99.90
11617;DHT22;5864;52.998;9.068;2022-10-29T09:26:29;17.20;99.90
11617;DHT22;5864;52.998;9.068;2022-10-29T09:29:09;17.60;99.90
11617;DHT22;5864;52.998;9.068;2022-10-29T09:31:46;17.90;99.90
11617;DHT22;5864;52.998;9.068;2022-10-29T09:34:18;18.10;99.90
11617;DHT22;5864;52.998;9.068;2022-10-29T09:36:50;18.20;99.90
11617;DHT22;5864;52.998;9.068;2022-10-29T09:39:24;18.60;99.90
11617;DHT22;5864;52.998;9.068;2022-10-29T09:41:56;18.60;99.90
11617;DHT22;5864;52.998;9.068;2022-10-29T09:44:30;19.00;99.90
11617;DHT22;5864;52.998;9.068;2022-10-29T09:47:06;19.40;99.90
11617;DHT22;5864;52.998;9.068;2022-10-29T09:49:57;19.50;99.90
11617;DHT22;5864;52.998;9.068;2022-10-29T09:52:30;19.60;99.90
11617;DHT22;5864;52.998;9.068;2022-10-29T09:55:00;19.40;99.90
11617;DHT22;5864;52.998;9.068;2022-10-29T09:57:32;19.30;99.90
11617;DHT22;5864;52.998;9.068;2022-10-29T10:00:02;19.30;99.90
11617;DHT22;5864;52.998;9.068;2022-10-29T10:02:32;19.40;99.90
11617;DHT22;5864;52.998;9.068;2022-10-29T10:05:04;19.50;99.90
11617;DHT22;5864;52.998;9.068;2022-10-29T10:07:32;19.50;99.90
11617;DHT22;5864;52.998;9.068;2022-10-29T10:10:01;19.70;99.90
11617;DHT22;5864;52.998;9.068;2022-10-29T10:12:44;19.70;99.90
11617;DHT22;5864;52.998;9.068;2022-10-29T10:15:22;20.00;99.90
11617;DHT22;5864;52.998;9.068;2022-10-29T10:17:55;19.80;99.90
11617;DHT22;5864;52.998;9.068;2022-10-29T10:20:29;19.90;99.90
11617;DHT22;5864;52.998;9.068;2022-10-29T10:22:56;20.00;99.90
11617;DHT22;5864;52.998;9.068;2022-10-29T10:25:32;20.20;99.90
11617;DHT22;5864;52.998;9.068;2022-10-29T10:28:13;20.30;99.90
11617;DHT22;5864;52.998;9.068;2022-10-29T10:30:40;20.30;99.90
11617;DHT22;5864;52.998;9.068;2022-10-29T10:33:25;20.40;99.90
11617;DHT22;5864;52.998;9.068;2022-10-29T10:35:53;20.60;99.90
11617;DHT22;5864;52.998;9.068;2022-10-29T10:38:20;20.70;99.90
11617;DHT22;5864;52.998;9.068;2022-10-29T10:40:55;20.50;99.90
11617;DHT22;5864;52.998;9.068;2022-10-29T10:43:25;20.40;99.90
11617;DHT22;5864;52.998;9.068;2022-10-29T10:45:55;20.20;99.90
11617;DHT22;5864;52.998;9.068;2022-10-29T10:48:25;20.00;99.90
11617;DHT22;5864;52.998;9.068;2022-10-29T10:51:09;19.90;99.90
11617;DHT22;5864;52.998;9.068;2022-10-29T10:53:38;19.70;99.90
11617;DHT22;5864;52.998;9.068;2022-10-29T10:56:15;19.70;99.90
11617;DHT22;5864;52.998;9.068;2022-10-29T10:58:49;19.80;99.90
11617;DHT22;5864;52.998;9.068;2022-10-29T11:01:21;19.80;99.90
11617;DHT22;5864;52.998;9.068;2022-10-29T11:03:57;20.10;99.90
11617;DHT22;5864;52.998;9.068;2022-10-29T11:06:32;20.40;99.90
11617;DHT22;5864;52.998;9.068;2022-10-29T11:09:08;20.50;99.90
11617;DHT22;5864;52.998;9.068;2022-10-29T11:11:41;20.50;99.90
11617;DHT22;5864;52.998;9.068;2022-10-29T11:14:16;20.60;99.90
11617;DHT22;5864;52.998;9.068;2022-10-29T11:16:49;20.50;99.90
11617;DHT22;5864;52.998;9.068;2022-10-29T11:19:23;20.40;99.90
11617;DHT22;5864;52.998;9.068;2022-10-29T11:22:00;20.20;99.90
11617;DHT22;5864;52.998;9.068;2022-10-29T11:24:37;20.30;99.90
11617;DHT22;5864;52.998;9.068;2022-10-29T11:27:18;20.20;99.90
11617;DHT22;5864;52.998;9.068;2022-10-29T11:29:53;20.40;99.90
11617;DHT22;5864;52.998;9.068;2022-10-29T11:32:32;20.30;99.90
11617;DHT22;5864;52.998;9.068;2022-10-29T11:35:04;20.50;99.90
11617;DHT22;5864;52.998;9.068;2022-10-29T11:37:42;20.40;99.90
11617;DHT22;5864;52.998;9.068;2022-10-29T11:40:12;20.30;99.90
11617;DHT22;5864;52.998;9.068;2022-10-29T11:42:40;20.20;99.90
11617;DHT22;5864;52.998;9.068;2022-10-29T11:45:13;20.20;99.90
11617;DHT22;5864;52.998;9.068;2022-10-29T11:47:53;20.20;99.90
11617;DHT22;5864;52.998;9.068;2022-10-29T11:50:28;20.20;99.90
11617;DHT22;5864;52.998;9.068;2022-10-29T11:53:03;20.20;99.90
11617;DHT22;5864;52.998;9.068;2022-10-29T11:55:39;20.20;99.90
11617;DHT22;5864;52.998;9.068;2022-10-29T11:58:14;19.90;99.90
11617;DHT22;5864;52.998;9.068;2022-10-29T12:00:54;19.80;99.90
11617;DHT22;5864;52.998;9.068;2022-10-29T12:06:17;19.80;99.90
11617;DHT22;5864;52.998;9.068;2022-10-29T12:08:57;19.80;99.90
11617;DHT22;5864;52.998;9.068;2022-10-29T12:11:34;19.70;99.90
11617;DHT22;5864;52.998;9.068;2022-10-29T12:14:16;19.80;99.90
11617;DHT22;5864;52.998;9.068;2022-10-29T12:16:55;19.90;99.90
11617;DHT22;5864;52.998;9.068;2022-10-29T12:19:36;20.00;99.90
11617;DHT22;5864;52.998;9.068;2022-10-29T12:22:17;20.20;99.90
11617;DHT22;5864;52.998;9.068;2022-10-29T12:25:06;20.20;99.90
11617;DHT22;5864;52.998;9.068;2022-10-29T12:27:40;20.30;99.90
11617;DHT22;5864;52.998;9.068;2022-10-29T12:30:12;20.40;99.90
11617;DHT22;5864;52.998;9.068;2022-10-29T12:32:53;20.50;99.90
11617;DHT22;5864;52.998;9.068;2022-10-29T12:35:28;20.70;99.90
11617;DHT22;5864;52.998;9.068;2022-10-29T12:38:14;20.70;99.90
11617;DHT22;5864;52.998;9.068;2022-10-29T12:40:46;20.80;99.90
11617;DHT22;5864;52.998;9.068;2022-10-29T12:43:20;20.80;99.90
11617;DHT22;5864;52.998;9.068;2022-10-29T12:45:54;20.90;99.90
11617;DHT22;5864;52.998;9.068;2022-10-29T12:48:35;21.20;99.90
11617;DHT22;5864;52.998;9.068;2022-10-29T12:51:15;21.30;99.90
11617;DHT22;5864;52.998;9.068;2022-10-29T12:53:49;21.30;99.90
11617;DHT22;5864;52.998;9.068;2022-10-29T12:56:21;21.20;99.90
11617;DHT22;5864;52.998;9.068;2022-10-29T12:58:51;21.20;99.90
11617;DHT22;5864;52.998;9.068;2022-10-29T13:01:44;21.30;99.90
11617;DHT22;5864;52.998;9.068;2022-10-29T13:04:29;21.40;99.90
11617;DHT22;5864;52.998;9.068;2022-10-29T13:07:01;21.30;99.90
11617;DHT22;5864;52.998;9.068;2022-10-29T13:09:31;21.30;99.90
11617;DHT22;5864;52.998;9.068;2022-10-29T13:12:01;21.40;99.90
11617;DHT22;5864;52.998;9.068;2022-10-29T13:14:34;21.50;99.90
11617;DHT22;5864;52.998;9.068;2022-10-29T13:17:05;21.40;99.90
11617;DHT22;5864;52.998;9.068;2022-10-29T13:19:48;21.60;99.90
11617;DHT22;5864;52.998;9.068;2022-10-29T13:22:52;21.80;99.90
11617;DHT22;5864;52.998;9.068;2022-10-29T13:25:44;21.70;99.90
11617;DHT22;5864;52.998;9.068;2022-10-29T13:28:48;21.60;99.90
11617;DHT22;5864;52.998;9.068;2022-10-29T13:31:47;21.40;99.90
11617;DHT22;5864;52.998;9.068;2022-10-29T13:34:54;21.20;99.90
11617;DHT22;5864;52.998;9.068;2022-10-29T13:41:06;21.20;99.90
11617;DHT22;5864;52.998;9.068;2022-10-29T13:43:34;21.10;99.90
11617;DHT22;5864;52.998;9.068;2022-10-29T13:49:12;21.00;99.90
11617;DHT22;5864;52.998;9.068;2022-10-29T13:51:49;21.00;99.90
11617;DHT22;5864;52.998;9.068;2022-10-29T13:54:23;21.10;99.90
11617;DHT22;5864;52.998;9.068;2022-10-29T13:56:55;21.20;99.90
11617;DHT22;5864;52.998;9.068;2022-10-29T13:59:37;21.30;99.90
11617;DHT22;5864;52.998;9.068;2022-10-29T14:02:20;21.40;99.90
11617;DHT22;5864;52.998;9.068;2022-10-29T14:04:53;21.60;99.90
11617;DHT22;5864;52.998;9.068;2022-10-29T14:07:26;21.50;99.90
11617;DHT22;5864;52.998;9.068;2022-10-29T14:09:59;21.50;99.90
11617;DHT22;5864;52.998;9.068;2022-10-29T14:12:30;21.30;99.90
11617;DHT22;5864;52.998;9.068;2022-10-29T14:15:03;21.10;99.90
11617;DHT22;5864;52.998;9.068;2022-10-29T14:17:31;21.00;99.90
11617;DHT22;5864;52.998;9.068;2022-10-29T14:19:59;21.00;99.90
11617;DHT22;5864;52.998;9.068;2022-10-29T14:22:33;20.80;99.90
11617;DHT22;5864;52.998;9.068;2022-10-29T14:27:45;20.70;99.90
11617;DHT22;5864;52.998;9.068;2022-10-29T14:30:15;20.60;99.90
11617;DHT22;5864;52.998;9.068;2022-10-29T14:32:44;20.50;99.90
11617;DHT22;5864;52.998;9.068;2022-10-29T14:35:15;20.40;99.90
11617;DHT22;5864;52.998;9.068;2022-10-29T14:37:45;20.30;99.90
11617;DHT22;5864;52.998;9.068;2022-10-29T14:40:19;20.10;99.90
11617;DHT22;5864;52.998;9.068;2022-10-29T14:42:49;20.10;99.90
11617;DHT22;5864;52.998;9.068;2022-10-29T14:45:22;20.00;99.90
11617;DHT22;5864;52.998;9.068;2022-10-29T14:47:52;20.00;99.90
11617;DHT22;5864;52.998;9.068;2022-10-29T14:50:22;20.00;99.90
11617;DHT22;5864;52.998;9.068;2022-10-29T14:52:54;20.00;99.90
11617;DHT22;5864;52.998;9.068;2022-10-29T14:55:24;20.10;99.90
11617;DHT22;5864;52.998;9.068;2022-10-29T14:57:59;20.10;99.90
11617;DHT22;5864;52.998;9.068;2022-10-29T15:00:30;20.10;99.90
11617;DHT22;5864;52.998;9.068;2022-10-29T15:02:58;20.10;99.90
11617;DHT22;5864;52.998;9.068;2022-10-29T15:05:27;20.10;99.90
11617;DHT22;5864;52.998;9.068;2022-10-29T15:08:11;20.10;99.90
11617;DHT22;5864;52.998;9.068;2022-10-29T15:10:45;20.00;99.90
11617;DHT22;5864;52.998;9.068;2022-10-29T15:13:19;19.90;99.90
11617;DHT22;5864;52.998;9.068;2022-10-29T15:15:52;19.80;99.90
11617;DHT22;5864;52.998;9.068;2022-10-29T15:18:21;19.70;99.90
11617;DHT22;5864;52.998;9.068;2022-10-29T15:20:49;19.70;99.90
11617;DHT22;5864;52.998;9.068;2022-10-29T15:23:24;19.70;99.90
11617;DHT22;5864;52.998;9.068;2022-10-29T15:25:57;19.60;99.90
11617;DHT22;5864;52.998;9.068;2022-10-29T15:28:27;19.60;99.90
11617;DHT22;5864;52.998;9.068;2022-10-29T15:30:55;19.60;99.90
11617;DHT22;5864;52.998;9.068;2022-10-29T15:33:25;19.50;99.90
11617;DHT22;5864;52.998;9.068;2022-10-29T15:35:56;19.50;99.90
11617;DHT22;5864;52.998;9.068;2022-10-29T15:39:07;19.40;99.90
11617;DHT22;5864;52.998;9.068;2022-10-29T15:41:36;19.40;99.90
11617;DHT22;5864;52.998;9.068;2022-10-29T15:44:32;19.30;99.90
11617;DHT22;5864;52.998;9.068;2022-10-29T15:47:01;19.30;99.90
11617;DHT22;5864;52.998;9.068;2022-10-29T15:49:28;19.20;99.90
11617;DHT22;5864;52.998;9.068;2022-10-29T15:51:58;19.20;99.90
11617;DHT22;5864;52.998;9.068;2022-10-29T15:54:27;19.10;99.90
11617;DHT22;5864;52.998;9.068;2022-10-29T15:56:55;19.00;99.90
11617;DHT22;5864;52.998;9.068;2022-10-29T15:59:24;18.90;99.90
11617;DHT22;5864;52.998;9.068;2022-10-29T16:01:52;18.90;99.90
11617;DHT22;5864;52.998;9.068;2022-10-29T16:04:19;18.80;99.90
11617;DHT22;5864;52.998;9.068;2022-10-29T16:06:46;18.70;99.90
11617;DHT22;5864;52.998;9.068;2022-10-29T16:09:17;19.90;99.90
11617;DHT22;5864;52.998;9.068;2022-10-29T16:11:47;18.50;99.90
11617;DHT22;5864;52.998;9.068;2022-10-29T16:14:15;18.50;99.90
11617;DHT22;5864;52.998;9.068;2022-10-29T16:16:43;18.50;99.90
11617;DHT22;5864;52.998;9.068;2022-10-29T16:19:10;18.50;99.90
11617;DHT22;5864;52.998;9.068;2022-10-29T16:21:39;18.40;99.90
11617;DHT22;5864;52.998;9.068;2022-10-29T16:24:10;18.40;99.90
11617;DHT22;5864;52.998;9.068;2022-10-29T16:26:39;18.40;99.90
11617;DHT22;5864;52.998;9.068;2022-10-29T16:29:09;18.40;99.90
11617;DHT22;5864;52.998;9.068;2022-10-29T16:31:36;18.30;99.90